Airfield :
LOGIN :

Register | Disclaimer

   EN    FR    IT 

 










Legend :    VFR   Marginal VFR   IFR   Intensive IFR   Very Intensive IFR
Visi :
Ceiling :
>= 8 km
>= 3000ft
5 to 8 km
1000 to 3000 ft
1500m to 5 km
500 to 1000 ft
800 to 1500m
200 to 500 ft
< 800m
< 200 ft
Symbols :   Thunderstorms  Fog  Heavy snow  Heavy precipitations  Wind > 20 kt
SIGMETs :     Misc.  Thunderstorms  Icing  Turbulence  Mountain Waves  Volcanic Ashes







- Airport Elevation : 348 ft
- IATA code : STN
- Download approach charts


EGSS - London Stansted

CURRENT METAR :
  • 230450Z AUTO VRB02KT 9999 OVC031 07/00 Q1027

EXPIRED METARs :
  • 230420Z AUTO 18003KT 9999 OVC031 07/00 Q1027
  • 230350Z AUTO 16003KT 9999 OVC030 07/M00 Q1028
  • 230320Z AUTO 16003KT 9999 OVC028 07/M00 Q1028
  • 230250Z AUTO 16004KT 9999 OVC026 07/00 Q1028
  • 230220Z AUTO 13004KT 9999 OVC027 07/00 Q1028

TAF TAF EGSS
Valid from the 23 at 00:00 until the 24 at 06:00 UTC


222255Z 2300/2406 12007KT 9999 FEW030
PROB30
TEMPO 2300/2308 8000
BECMG 2306/2309 20010KT
BECMG 2309/2312 28010KT
PROB30
TEMPO 2309/2313 9000 -SHRA
PROB30
TEMPO 2402/2406 6000
ATIS : +44 1279 669 325
No reported NOTAMs for that airfield.



MET'MAP, your aeronautical weather chart ! - Copyright ORBIFLY December 2007 - Disclaimer

ORBIFLY MET'MAP TEAM :

Programming & Development : Alexandra Zaïnal
Concept & Development : Baudouin d'Aumeries
Co-Development & Prog : Marc-Olivier Méhu
Technical & hardware support : Manuel Goepfert

Contact : metmap@orbifly.com




SOURCES & CREDITS :

   NOAA